Zeja, Russia
Current Conditions -  °F | °C
As of 9:30 AM on Monday 26 Jan 2015 (Local Time) from UHBB Reporting Station
Haze Haze  
Wind Chill: -10°   Ceiling: Unl
Heat Index:   Visibility: 2.6mi
Dew Point: -4°   Wind: 4mph
Humidity: 85%   Direction: 310°NW
Pressure: 30.06"   Gusts: NA
Location:  53.75°N, 127.27°E
Report Text: UHBB 260030Z 31002MPS 4200 BR NSC M18/M20 Q1018 NOSIG RMKQFE746/0994 36410260
Loading
Personal Weather Stations






























Interactive Weather Map New forecast layout! Learn more

10-Day Weather Forecast

Advertisements
Track Severe Weather on mobile